createdAt,value
2022-10-13T04:00:42.878Z,0.00
2022-10-13T04:01:44.221Z,0.00
2022-10-13T04:02:44.559Z,0.00
2022-10-13T04:03:44.867Z,0.00
2022-10-13T04:04:45.241Z,0.00
2022-10-13T04:05:45.630Z,0.00
2022-10-13T04:06:45.961Z,0.00
2022-10-13T04:07:46.320Z,0.00
2022-10-13T04:08:46.746Z,0.00
2022-10-13T04:09:47.023Z,0.00
2022-10-13T04:10:47.414Z,0.00
2022-10-13T04:11:47.793Z,0.00
2022-10-13T04:12:48.098Z,0.00
2022-10-13T04:13:54.436Z,0.00
2022-10-13T04:14:48.801Z,0.00
2022-10-13T04:15:49.186Z,0.00
2022-10-13T04:16:49.515Z,0.00
2022-10-13T04:17:49.844Z,0.00
2022-10-13T04:18:50.211Z,0.00
2022-10-13T04:19:50.580Z,0.00
2022-10-13T04:20:50.966Z,0.00
2022-10-13T04:21:51.295Z,0.00
2022-10-13T04:22:51.710Z,0.00
2022-10-13T04:23:52.022Z,0.00
2022-10-13T04:24:52.357Z,0.00
2022-10-13T04:25:52.701Z,0.00
2022-10-13T04:26:53.030Z,0.00
2022-10-13T04:27:53.422Z,0.00
2022-10-13T04:28:53.783Z,0.00
2022-10-13T04:29:54.086Z,0.00
2022-10-13T04:30:54.514Z,0.00
2022-10-13T04:31:54.836Z,0.00
2022-10-13T04:32:55.195Z,0.00
2022-10-13T04:33:55.584Z,0.00
2022-10-13T04:34:55.920Z,0.00
2022-10-13T04:35:56.321Z,0.00
2022-10-13T04:36:56.601Z,0.00
2022-10-13T04:37:56.976Z,0.00
2022-10-13T04:38:57.334Z,0.00
2022-10-13T04:39:57.701Z,0.00
2022-10-13T04:40:58.078Z,0.00
2022-10-13T04:41:58.453Z,0.00
2022-10-13T04:42:58.777Z,0.00
2022-10-13T04:43:59.133Z,0.00
2022-10-13T04:44:59.508Z,0.00
2022-10-13T04:45:59.885Z,0.00
2022-10-13T04:47:00.222Z,0.00
2022-10-13T04:48:00.577Z,0.00
2022-10-13T04:49:00.943Z,0.00
2022-10-13T04:50:01.307Z,0.00
2022-10-13T04:51:01.704Z,0.00
2022-10-13T04:52:02.022Z,0.00
2022-10-13T04:53:02.399Z,0.00
2022-10-13T04:54:02.755Z,0.00
2022-10-13T04:55:03.134Z,0.00
2022-10-13T04:56:03.470Z,0.00
2022-10-13T04:57:03.802Z,0.00
2022-10-13T04:58:04.117Z,0.00
2022-10-13T04:59:04.471Z,0.00
2022-10-13T05:00:04.838Z,0.00
2022-10-13T05:01:05.310Z,0.00
2022-10-13T05:02:05.580Z,0.00
2022-10-13T05:03:05.948Z,0.00
2022-10-13T05:04:06.326Z,0.00
2022-10-13T05:05:06.680Z,0.00
2022-10-13T05:06:07.049Z,0.00
2022-10-13T05:07:17.848Z,0.00
2022-10-13T05:08:07.845Z,0.00
2022-10-13T05:09:08.126Z,0.00
2022-10-13T05:10:08.228Z,1.00
2022-10-13T05:11:08.617Z,1.00
2022-10-13T05:12:08.807Z,1.00
2022-10-13T05:13:09.134Z,0.00
2022-10-13T05:14:09.497Z,0.00
2022-10-13T05:15:09.798Z,2.00
2022-10-13T05:16:10.011Z,1.00
2022-10-13T05:17:10.365Z,0.00
2022-10-13T05:18:10.456Z,1.00
2022-10-13T05:19:10.619Z,2.00
2022-10-13T05:20:10.796Z,1.00
2022-10-13T05:21:11.120Z,5.00
2022-10-13T05:22:11.400Z,2.00
2022-10-13T05:23:11.660Z,11.00
2022-10-13T05:24:11.952Z,7.00
2022-10-13T05:25:12.238Z,7.00
2022-10-13T05:26:12.551Z,15.00
2022-10-13T05:27:12.827Z,8.00
2022-10-13T05:28:13.172Z,17.00
2022-10-13T05:29:13.403Z,22.00
2022-10-13T05:30:13.691Z,25.00
2022-10-13T05:31:13.986Z,26.00
2022-10-13T05:32:14.259Z,32.00
2022-10-13T05:33:14.429Z,40.00
2022-10-13T05:34:14.580Z,39.00
2022-10-13T05:35:14.867Z,40.00
2022-10-13T05:36:15.185Z,48.00
2022-10-13T05:37:15.477Z,53.00
2022-10-13T05:38:15.655Z,51.00
2022-10-13T05:39:15.899Z,64.00
2022-10-13T05:40:16.210Z,84.00
2022-10-13T05:41:16.548Z,90.00
2022-10-13T05:42:17.002Z,100.00
2022-10-13T05:43:16.978Z,109.00
2022-10-13T05:44:17.135Z,116.00
2022-10-13T05:45:17.319Z,124.00
2022-10-13T05:46:17.510Z,133.00
2022-10-13T05:47:17.651Z,140.00
2022-10-13T05:48:17.822Z,146.00
2022-10-13T05:49:18.127Z,148.00
2022-10-13T05:50:18.298Z,156.00
2022-10-13T05:51:18.553Z,164.00
2022-10-13T05:52:19.001Z,177.00
2022-10-13T05:53:18.965Z,191.00
2022-10-13T05:54:19.128Z,212.00
2022-10-13T05:55:19.354Z,230.00
2022-10-13T05:56:19.611Z,247.00
2022-10-13T05:57:19.778Z,266.00
2022-10-13T05:58:19.976Z,296.00
2022-10-13T05:59:24.602Z,314.00
2022-10-13T06:00:20.439Z,327.00
2022-10-13T06:01:20.681Z,336.00
2022-10-13T06:02:21.263Z,342.00
2022-10-13T06:03:21.186Z,342.00
2022-10-13T06:04:21.375Z,335.00
2022-10-13T06:05:21.658Z,331.00
2022-10-13T06:06:21.992Z,331.00
2022-10-13T06:07:22.139Z,339.00
2022-10-13T06:08:22.394Z,356.00
2022-10-13T06:09:22.708Z,388.00
2022-10-13T06:10:22.878Z,413.00
2022-10-13T06:11:23.192Z,456.00
2022-10-13T06:12:23.644Z,476.00
2022-10-13T06:13:23.666Z,500.00
2022-10-13T06:14:23.855Z,513.00
2022-10-13T06:15:27.997Z,523.00
2022-10-13T06:16:24.321Z,545.00
2022-10-13T06:17:24.489Z,561.00
2022-10-13T06:18:24.671Z,587.00
2022-10-13T06:19:24.836Z,608.00
2022-10-13T06:20:25.084Z,627.00
2022-10-13T06:21:25.228Z,656.00
2022-10-13T06:22:25.403Z,690.00
2022-10-13T06:23:25.567Z,718.00
2022-10-13T06:24:25.858Z,745.00
2022-10-13T06:25:26.163Z,775.00
2022-10-13T06:26:26.443Z,834.00
2022-10-13T06:27:26.630Z,890.00
2022-10-13T06:28:26.884Z,950.00
2022-10-13T06:29:27.217Z,998.00
2022-10-13T06:30:27.281Z,1039.00
2022-10-13T06:31:27.657Z,967.00
2022-10-13T06:32:27.836Z,977.00
2022-10-13T06:33:28.135Z,1117.00
2022-10-13T06:34:28.300Z,1082.00
2022-10-13T06:35:28.614Z,1097.00
2022-10-13T06:36:28.921Z,1222.00
2022-10-13T06:37:29.081Z,1401.00
2022-10-13T06:38:29.245Z,1540.00
2022-10-13T06:39:29.414Z,1624.00
2022-10-13T06:40:29.628Z,1648.00
2022-10-13T06:41:29.763Z,1658.00
2022-10-13T06:42:29.941Z,1667.00
2022-10-13T06:43:36.009Z,1678.00
2022-10-13T06:44:30.324Z,1695.00
2022-10-13T06:45:30.497Z,1705.00
2022-10-13T06:46:30.695Z,1704.00
2022-10-13T06:47:30.864Z,1719.00
2022-10-13T06:48:31.074Z,1739.00
2022-10-13T06:49:31.205Z,1769.00
2022-10-13T06:50:31.383Z,1798.00
2022-10-13T06:51:31.584Z,1808.00
2022-10-13T06:52:31.764Z,1794.00
2022-10-13T06:53:31.879Z,1787.00
2022-10-13T06:54:32.087Z,1771.00
2022-10-13T06:55:32.271Z,1760.00
2022-10-13T06:56:32.458Z,1749.00
2022-10-13T06:57:32.605Z,1722.00
2022-10-13T06:58:32.912Z,1720.00
2022-10-13T06:59:33.073Z,1726.00
2022-10-13T07:00:33.410Z,1755.00
2022-10-13T07:01:35.749Z,1801.00
2022-10-13T07:02:33.733Z,1871.00
2022-10-13T07:03:33.900Z,1926.00
2022-10-13T07:04:34.066Z,1970.00
2022-10-13T07:05:34.262Z,1987.00
2022-10-13T07:06:34.562Z,1995.00
2022-10-13T07:07:34.739Z,2002.00
2022-10-13T07:08:34.905Z,2008.00
2022-10-13T07:09:35.097Z,2045.00
2022-10-13T07:10:35.284Z,2075.00
2022-10-13T07:11:35.500Z,2092.00
2022-10-13T07:12:35.608Z,2119.00
2022-10-13T07:13:37.137Z,2186.00
2022-10-13T07:14:38.221Z,2267.00
2022-10-13T07:15:36.370Z,2340.00
2022-10-13T07:16:36.590Z,2428.00
2022-10-13T07:17:36.749Z,2507.00
2022-10-13T07:18:36.920Z,2572.00
2022-10-13T07:19:37.085Z,2639.00
2022-10-13T07:20:37.418Z,2703.00
2022-10-13T07:21:37.579Z,2767.00
2022-10-13T07:22:37.753Z,2828.00
2022-10-13T07:23:37.941Z,2887.00
2022-10-13T07:24:38.103Z,2921.00
2022-10-13T07:25:38.263Z,2962.00
2022-10-13T07:26:38.467Z,2999.00
2022-10-13T07:27:38.616Z,3061.00
2022-10-13T07:28:38.875Z,3119.00
2022-10-13T07:29:39.010Z,3161.00
2022-10-13T07:30:39.187Z,3161.00
2022-10-13T07:31:39.384Z,3146.00
2022-10-13T07:32:39.605Z,3116.00
2022-10-13T07:33:39.750Z,3116.00
2022-10-13T07:34:39.938Z,3110.00
2022-10-13T07:35:40.179Z,3114.00
2022-10-13T07:36:40.340Z,3113.00
2022-10-13T07:37:40.500Z,3117.00
2022-10-13T07:38:40.699Z,3130.00
2022-10-13T07:39:40.879Z,3133.00
2022-10-13T07:40:41.064Z,3116.00
2022-10-13T07:41:41.267Z,3115.00
2022-10-13T07:42:41.461Z,3149.00
2022-10-13T07:43:41.638Z,3188.00
2022-10-13T07:44:41.865Z,3250.00
2022-10-13T07:45:42.042Z,3320.00
2022-10-13T07:46:42.254Z,3405.00
2022-10-13T07:47:42.417Z,3485.00
2022-10-13T07:48:42.609Z,3556.00
2022-10-13T07:49:42.804Z,3607.00
2022-10-13T07:50:42.999Z,3664.00
2022-10-13T07:51:43.210Z,3709.00
2022-10-13T07:52:43.397Z,3772.00
2022-10-13T07:53:43.571Z,3860.00
2022-10-13T07:54:43.762Z,3965.00
2022-10-13T07:55:43.961Z,4086.00
2022-10-13T07:56:44.184Z,4233.00
2022-10-13T07:57:44.323Z,4407.00
2022-10-13T07:58:44.507Z,4566.00
2022-10-13T07:59:44.689Z,4721.00
2022-10-13T08:00:44.880Z,4857.00
2022-10-13T08:01:45.202Z,4979.00
2022-10-13T08:02:45.262Z,5101.00
2022-10-13T08:03:49.030Z,5182.00
2022-10-13T08:04:45.675Z,5236.00
2022-10-13T08:05:45.810Z,5254.00
2022-10-13T08:06:46.035Z,5233.00
2022-10-13T08:07:46.180Z,5204.00
2022-10-13T08:08:46.360Z,5161.00
2022-10-13T08:09:46.550Z,5103.00
2022-10-13T08:10:46.773Z,5066.00
2022-10-13T08:11:46.932Z,4989.00
2022-10-13T08:12:47.104Z,4925.00
2022-10-13T08:13:47.306Z,4829.00
2022-10-13T08:15:47.718Z,4699.00
2022-10-13T08:16:50.053Z,4680.00
2022-10-13T08:17:48.061Z,4690.00
2022-10-13T08:18:48.256Z,4752.00
2022-10-13T08:19:48.426Z,4833.00
2022-10-13T08:20:48.621Z,4931.00
2022-10-13T08:22:07.826Z,5028.00
2022-10-13T08:22:49.025Z,5114.00
2022-10-13T08:23:49.175Z,5176.00
2022-10-13T08:24:49.361Z,5240.00
2022-10-13T08:25:49.551Z,5333.00
2022-10-13T08:26:49.767Z,5425.00
2022-10-13T08:27:51.321Z,5528.00
2022-10-13T08:29:09.635Z,5642.00
2022-10-13T08:29:50.321Z,5748.00
2022-10-13T08:30:50.684Z,5818.00
2022-10-13T08:31:50.813Z,5869.00
2022-10-13T08:32:50.850Z,5901.00
2022-10-13T08:33:51.049Z,5932.00
2022-10-13T08:34:51.234Z,5976.00
2022-10-13T08:35:51.428Z,6033.00
2022-10-13T08:36:51.647Z,6109.00
2022-10-13T08:37:51.851Z,6167.00
2022-10-13T08:38:51.998Z,6235.00
2022-10-13T08:39:52.169Z,6296.00
2022-10-13T08:40:52.355Z,6328.00
2022-10-13T08:41:52.558Z,6355.00
2022-10-13T08:42:55.570Z,6369.00
2022-10-13T08:44:33.644Z,6381.00
2022-10-13T08:45:53.281Z,6421.00
2022-10-13T08:46:53.486Z,6434.00
2022-10-13T08:47:53.633Z,6432.00
2022-10-13T08:48:53.808Z,6445.00
2022-10-13T08:49:59.118Z,6468.00
2022-10-13T08:50:54.204Z,6496.00
2022-10-13T08:51:54.408Z,6561.00
2022-10-13T08:52:54.576Z,6601.00
2022-10-13T08:53:54.755Z,6637.00
2022-10-13T08:54:54.943Z,6670.00
2022-10-13T08:55:55.127Z,6720.00
2022-10-13T08:56:55.394Z,6765.00
2022-10-13T08:57:55.515Z,6817.00
2022-10-13T08:58:55.697Z,6827.00
2022-10-13T08:59:55.875Z,6804.00
2022-10-13T09:00:56.061Z,6779.00
2022-10-13T09:01:56.365Z,6726.00
2022-10-13T09:02:56.531Z,6644.00
2022-10-13T09:03:56.648Z,6525.00
2022-10-13T09:04:56.888Z,6350.00
2022-10-13T09:05:57.029Z,6330.00
2022-10-13T09:06:57.247Z,6281.00
2022-10-13T09:07:57.439Z,6346.00
2022-10-13T09:08:57.578Z,6175.00
2022-10-13T09:09:57.766Z,6283.00
2022-10-13T09:10:57.964Z,6156.00
2022-10-13T09:11:58.137Z,6583.00
2022-10-13T09:12:58.326Z,6967.00
2022-10-13T09:13:58.514Z,7224.00
2022-10-13T09:14:58.701Z,7193.00
2022-10-13T09:15:58.930Z,7136.00
2022-10-13T09:16:59.106Z,7309.00
2022-10-13T09:17:59.294Z,7520.00
2022-10-13T09:18:59.476Z,7439.00
2022-10-13T09:19:59.629Z,7442.00
2022-10-13T09:20:59.825Z,8249.00
2022-10-13T09:22:00.030Z,9431.00
2022-10-13T09:23:00.197Z,10120.00
2022-10-13T09:24:00.393Z,10668.00
2022-10-13T09:25:00.606Z,10680.00
2022-10-13T09:26:00.761Z,9981.00
2022-10-13T09:27:00.954Z,9278.00
2022-10-13T09:28:01.144Z,9003.00
2022-10-13T09:29:01.368Z,8609.00
2022-10-13T09:30:01.527Z,7420.00
2022-10-13T09:31:01.731Z,6793.00
2022-10-13T09:32:01.907Z,6091.00
2022-10-13T09:33:02.069Z,5683.00
2022-10-13T09:34:02.283Z,5794.00
2022-10-13T09:35:02.457Z,5738.00
2022-10-13T09:36:02.643Z,5541.00
2022-10-13T09:37:02.844Z,4751.00
2022-10-13T09:38:03.028Z,3489.00
2022-10-13T09:39:03.205Z,2793.00
2022-10-13T09:40:03.417Z,2865.00
2022-10-13T09:41:03.566Z,3048.00
2022-10-13T09:42:03.780Z,3101.00
2022-10-13T09:43:03.930Z,3268.00
2022-10-13T09:44:04.109Z,3412.00
2022-10-13T09:45:04.298Z,3501.00
2022-10-13T09:46:04.473Z,3867.00
2022-10-13T09:47:04.683Z,4310.00
2022-10-13T09:48:04.840Z,4675.00
2022-10-13T09:49:05.008Z,5158.00
2022-10-13T09:50:07.520Z,5486.00
2022-10-13T09:51:05.383Z,5026.00
2022-10-13T09:52:05.582Z,4282.00
2022-10-13T09:53:05.756Z,3857.00
2022-10-13T09:54:05.933Z,3631.00
2022-10-13T09:55:06.130Z,3548.00
2022-10-13T09:56:06.323Z,3573.00
2022-10-13T09:57:06.552Z,3713.00
2022-10-13T09:58:06.712Z,3831.00
2022-10-13T09:59:06.892Z,3827.00
2022-10-13T10:00:07.092Z,3807.00
2022-10-13T10:01:07.284Z,3864.00
2022-10-13T10:02:07.519Z,4047.00
2022-10-13T10:03:07.668Z,4424.00
2022-10-13T10:04:07.896Z,4781.00
2022-10-13T10:05:08.059Z,5039.00
2022-10-13T10:06:08.235Z,5111.00
2022-10-13T10:07:08.453Z,4693.00
2022-10-13T10:08:08.601Z,4329.00
2022-10-13T10:09:08.787Z,4340.00
2022-10-13T10:10:09.002Z,4439.00
2022-10-13T10:11:09.199Z,4421.00
2022-10-13T10:12:09.411Z,4490.00
2022-10-13T10:13:09.562Z,4540.00
2022-10-13T10:14:09.762Z,4457.00
2022-10-13T10:15:09.949Z,4408.00
2022-10-13T10:16:10.138Z,4333.00
2022-10-13T10:17:10.338Z,4285.00
2022-10-13T10:18:10.522Z,4312.00
2022-10-13T10:19:10.713Z,4438.00
2022-10-13T10:20:10.918Z,4704.00
2022-10-13T10:21:11.104Z,5160.00
2022-10-13T10:22:11.322Z,5755.00
2022-10-13T10:23:11.459Z,6272.00
2022-10-13T10:24:11.643Z,6487.00
2022-10-13T10:25:11.823Z,6527.00
2022-10-13T10:26:12.011Z,6874.00
2022-10-13T10:27:12.240Z,7641.00
2022-10-13T10:28:12.418Z,8289.00
2022-10-13T10:29:12.553Z,8419.00
2022-10-13T10:30:12.775Z,8199.00
2022-10-13T10:31:12.942Z,7997.00
2022-10-13T10:32:13.149Z,7995.00
2022-10-13T10:33:13.326Z,8289.00
2022-10-13T10:34:15.474Z,8401.00
2022-10-13T10:35:13.689Z,8471.00
2022-10-13T10:36:13.863Z,8699.00
2022-10-13T10:37:14.115Z,8910.00
2022-10-13T10:38:14.271Z,9121.00
2022-10-13T10:39:14.459Z,9280.00
2022-10-13T10:40:14.643Z,9454.00
2022-10-13T10:41:14.836Z,9742.00
2022-10-13T10:42:15.046Z,10270.00
2022-10-13T10:43:15.214Z,10961.00
2022-10-13T10:44:15.427Z,10125.00
2022-10-13T10:45:15.612Z,10163.00
2022-10-13T10:46:15.860Z,10004.00
2022-10-13T10:47:19.668Z,10702.00
2022-10-13T10:48:16.229Z,10765.00
2022-10-13T10:49:16.423Z,10360.00
2022-10-13T10:50:16.599Z,11978.00
2022-10-13T10:51:16.800Z,14424.00
2022-10-13T10:52:17.018Z,13220.00
2022-10-13T10:53:17.209Z,12916.00
2022-10-13T10:54:17.433Z,13124.00
2022-10-13T10:55:17.608Z,11829.00
2022-10-13T10:56:17.781Z,10380.00
2022-10-13T10:57:18.357Z,8838.00
2022-10-13T10:58:18.164Z,9366.00
2022-10-13T10:59:18.372Z,10590.00
2022-10-13T11:00:18.648Z,11937.00
2022-10-13T11:01:18.783Z,10743.00
2022-10-13T11:02:19.369Z,10940.00
2022-10-13T11:03:19.181Z,8309.00
2022-10-13T11:04:19.375Z,8268.00
2022-10-13T11:05:19.577Z,10788.00
2022-10-13T11:06:19.776Z,10005.00
2022-10-13T11:07:20.000Z,11099.00
2022-10-13T11:08:20.178Z,10064.00
2022-10-13T11:09:20.350Z,8404.00
2022-10-13T11:10:20.551Z,11125.00
2022-10-13T11:11:24.759Z,8845.00
2022-10-13T11:12:21.475Z,8622.00
2022-10-13T11:13:21.110Z,13314.00
2022-10-13T11:14:21.341Z,12440.00
2022-10-13T11:15:21.482Z,13380.00
2022-10-13T11:16:21.727Z,14805.00
2022-10-13T11:17:21.951Z,13891.00
2022-10-13T11:18:22.121Z,16576.00
2022-10-13T11:19:22.275Z,17021.00
2022-10-13T11:20:22.495Z,8244.00
2022-10-13T11:21:22.690Z,14466.00
2022-10-13T11:22:23.264Z,10840.00
2022-10-13T11:23:23.111Z,11855.00
2022-10-13T11:24:23.290Z,11011.00
2022-10-13T11:25:23.480Z,16893.00
2022-10-13T11:26:23.667Z,12887.00
2022-10-13T11:27:23.875Z,22938.00
2022-10-13T11:28:24.109Z,14078.00
2022-10-13T11:29:24.266Z,11589.00
2022-10-13T11:30:24.525Z,10437.00
2022-10-13T11:31:24.714Z,9947.00
2022-10-13T11:32:24.909Z,10675.00
2022-10-13T11:33:25.096Z,13533.00
2022-10-13T11:34:25.310Z,10684.00
2022-10-13T11:35:25.505Z,9001.00
2022-10-13T11:36:25.691Z,8618.00
2022-10-13T11:37:25.893Z,9933.00
2022-10-13T11:38:26.056Z,8363.00
2022-10-13T11:39:26.295Z,6884.00
2022-10-13T11:40:26.439Z,6765.00
2022-10-13T11:41:26.627Z,6494.00
2022-10-13T11:42:26.839Z,6416.00
2022-10-13T11:43:26.991Z,5957.00
2022-10-13T11:45:27.407Z,8829.00
2022-10-13T11:46:27.569Z,9992.00
2022-10-13T11:47:27.769Z,10018.00
2022-10-13T11:48:27.955Z,8150.00
2022-10-13T11:49:28.149Z,9481.00
2022-10-13T11:50:28.375Z,11242.00
2022-10-13T11:51:28.548Z,12640.00
2022-10-13T11:52:28.776Z,10120.00
2022-10-13T11:53:28.931Z,8749.00
2022-10-13T11:54:29.161Z,8123.00
2022-10-13T11:55:29.328Z,6521.00
2022-10-13T11:56:29.542Z,5779.00
2022-10-13T11:57:29.714Z,6463.00
2022-10-13T11:58:29.874Z,5435.00
2022-10-13T11:59:30.084Z,5180.00
2022-10-13T12:00:30.240Z,5430.00
2022-10-13T12:01:30.434Z,6236.00
2022-10-13T12:02:30.743Z,6945.00
2022-10-13T12:03:30.812Z,7561.00
2022-10-13T12:04:31.013Z,8418.00
2022-10-13T12:05:31.216Z,9126.00
2022-10-13T12:06:31.406Z,9587.00
2022-10-13T12:07:31.626Z,10122.00
2022-10-13T12:08:31.900Z,10304.00
2022-10-13T12:09:32.031Z,14553.00
2022-10-13T12:10:32.259Z,13147.00
2022-10-13T12:11:32.402Z,13292.00
2022-10-13T12:12:32.633Z,12265.00
2022-10-13T12:13:32.801Z,15230.00
2022-10-13T12:14:33.056Z,14849.00
2022-10-13T12:15:33.202Z,14119.00
2022-10-13T12:16:33.423Z,13485.00
2022-10-13T12:17:33.598Z,12064.00
2022-10-13T12:18:33.791Z,9068.00
2022-10-13T12:19:33.973Z,10557.00
2022-10-13T12:20:34.188Z,10660.00
2022-10-13T12:21:34.348Z,9028.00
2022-10-13T12:22:38.046Z,8156.00
2022-10-13T12:23:34.742Z,7644.00
2022-10-13T12:24:34.974Z,8648.00
2022-10-13T12:25:35.107Z,9784.00
2022-10-13T12:26:35.319Z,11453.00
2022-10-13T12:27:35.547Z,11032.00
2022-10-13T12:28:35.748Z,10891.00
2022-10-13T12:29:37.428Z,12553.00
2022-10-13T12:30:36.247Z,12337.00
2022-10-13T12:31:36.331Z,10055.00
2022-10-13T12:32:36.645Z,9978.00
2022-10-13T12:33:36.901Z,9506.00
2022-10-13T12:34:36.930Z,9189.00
2022-10-13T12:35:37.076Z,8518.00
2022-10-13T12:36:37.273Z,7302.00
2022-10-13T12:37:37.491Z,10622.00
2022-10-13T12:38:37.664Z,8923.00
2022-10-13T12:39:37.858Z,7550.00
2022-10-13T12:40:38.066Z,6523.00
2022-10-13T12:41:38.256Z,5804.00
2022-10-13T12:42:38.540Z,5297.00
2022-10-13T12:43:38.581Z,5794.00
2022-10-13T12:44:38.772Z,6470.00
2022-10-13T12:45:38.963Z,6373.00
2022-10-13T12:46:39.163Z,6486.00
2022-10-13T12:47:39.374Z,6711.00
2022-10-13T12:48:39.711Z,6832.00
2022-10-13T12:49:39.768Z,6906.00
2022-10-13T12:50:39.933Z,6774.00
2022-10-13T12:51:40.153Z,6727.00
2022-10-13T12:52:40.324Z,6047.00
2022-10-13T12:53:40.485Z,4777.00
2022-10-13T12:54:40.689Z,3674.00
2022-10-13T12:55:40.902Z,3208.00
2022-10-13T12:56:41.090Z,2959.00
2022-10-13T12:57:41.289Z,2978.00
2022-10-13T12:58:41.492Z,3465.00
2022-10-13T12:59:41.680Z,3553.00
2022-10-13T13:00:41.917Z,3377.00
2022-10-13T13:01:42.126Z,3378.00
2022-10-13T13:02:42.286Z,3733.00
2022-10-13T13:03:42.437Z,4103.00
2022-10-13T13:04:42.632Z,4357.00
2022-10-13T13:05:42.985Z,4038.00
2022-10-13T13:06:43.024Z,3646.00
2022-10-13T13:07:43.229Z,3330.00
2022-10-13T13:08:43.399Z,2938.00
2022-10-13T13:09:43.582Z,3015.00
2022-10-13T13:10:43.785Z,3200.00
2022-10-13T13:11:43.991Z,3695.00
2022-10-13T13:12:44.206Z,4308.00
2022-10-13T13:13:44.363Z,4418.00
2022-10-13T13:14:44.560Z,3498.00
2022-10-13T13:15:44.717Z,2748.00
2022-10-13T13:16:44.949Z,2604.00
2022-10-13T13:17:57.699Z,2769.00
2022-10-13T13:18:45.329Z,3134.00
2022-10-13T13:19:45.497Z,3169.00
2022-10-13T13:20:45.697Z,2835.00
2022-10-13T13:21:45.938Z,2496.00
2022-10-13T13:22:46.108Z,2682.00
2022-10-13T13:23:49.587Z,2742.00
2022-10-13T13:24:46.443Z,2707.00
2022-10-13T13:25:46.628Z,2666.00
2022-10-13T13:26:46.820Z,2755.00
2022-10-13T13:27:47.052Z,2929.00
2022-10-13T13:28:47.254Z,3082.00
2022-10-13T13:29:47.456Z,2902.00
2022-10-13T13:30:47.603Z,2846.00
2022-10-13T13:31:47.808Z,2827.00
2022-10-13T13:32:48.007Z,2859.00
2022-10-13T13:33:48.221Z,2806.00
2022-10-13T13:34:48.384Z,2864.00
2022-10-13T13:35:48.587Z,2969.00
2022-10-13T13:36:48.748Z,2975.00
2022-10-13T13:37:48.963Z,3095.00
2022-10-13T13:38:49.113Z,3033.00
2022-10-13T13:39:49.309Z,2831.00
2022-10-13T13:40:49.508Z,2833.00
2022-10-13T13:41:49.726Z,3216.00
2022-10-13T13:42:49.909Z,3486.00
2022-10-13T13:43:50.050Z,3558.00
2022-10-13T13:44:51.357Z,3744.00
2022-10-13T13:45:50.425Z,4012.00
2022-10-13T13:46:50.855Z,4073.00
2022-10-13T13:47:50.829Z,4056.00
2022-10-13T13:48:50.984Z,4104.00
2022-10-13T13:49:51.177Z,3544.00
2022-10-13T13:50:51.367Z,2688.00
2022-10-13T13:51:51.567Z,2352.00
2022-10-13T13:52:51.805Z,2229.00
2022-10-13T13:53:51.970Z,1614.00
2022-10-13T13:54:52.152Z,912.00
2022-10-13T13:55:52.339Z,604.00
2022-10-13T13:56:56.538Z,612.00
2022-10-13T13:57:52.712Z,834.00
2022-10-13T13:58:52.881Z,1473.00
2022-10-13T13:59:53.070Z,2534.00
2022-10-13T14:00:53.257Z,3274.00
2022-10-13T14:01:53.608Z,3424.00
2022-10-13T14:02:53.685Z,3247.00
2022-10-13T14:03:53.852Z,3131.00
2022-10-13T14:04:54.042Z,3329.00
2022-10-13T14:05:54.238Z,3471.00
2022-10-13T14:06:54.438Z,3425.00
2022-10-13T14:07:54.657Z,3094.00
2022-10-13T14:08:54.832Z,2762.00
2022-10-13T14:09:57.888Z,2296.00
2022-10-13T14:10:55.220Z,1776.00
2022-10-13T14:11:55.432Z,1587.00
2022-10-13T14:12:55.608Z,1707.00
2022-10-13T14:13:55.775Z,1859.00
2022-10-13T14:14:55.971Z,2176.00
2022-10-13T14:15:56.161Z,2693.00
2022-10-13T14:16:56.389Z,3270.00
2022-10-13T14:17:56.563Z,3765.00
2022-10-13T14:18:56.760Z,4070.00
2022-10-13T14:19:56.950Z,4441.00
2022-10-13T14:20:57.119Z,4817.00
2022-10-13T14:21:57.296Z,5093.00
2022-10-13T14:22:57.519Z,5197.00
2022-10-13T14:23:57.687Z,5123.00
2022-10-13T14:24:57.887Z,4997.00
2022-10-13T14:25:58.084Z,4853.00
2022-10-13T14:26:58.254Z,4730.00
2022-10-13T14:27:58.470Z,4628.00
2022-10-13T14:28:58.662Z,4533.00
2022-10-13T14:29:58.820Z,4501.00
2022-10-13T14:30:59.014Z,4502.00
2022-10-13T14:31:59.222Z,4547.00
2022-10-13T14:32:59.409Z,4596.00
2022-10-13T14:33:59.623Z,4638.00
2022-10-13T14:34:59.777Z,4722.00
2022-10-13T14:35:59.965Z,4808.00
2022-10-13T14:37:00.163Z,4846.00
2022-10-13T14:38:00.397Z,4877.00
2022-10-13T14:39:00.575Z,4881.00
2022-10-13T14:40:00.820Z,4827.00
2022-10-13T14:41:00.955Z,4619.00
2022-10-13T14:42:01.144Z,4356.00
2022-10-13T14:43:01.360Z,4119.00
2022-10-13T14:44:01.526Z,3867.00
2022-10-13T14:45:01.741Z,3644.00
2022-10-13T14:46:01.898Z,3373.00
2022-10-13T14:47:02.094Z,3131.00
2022-10-13T14:48:02.297Z,2888.00
2022-10-13T14:49:02.455Z,2662.00
2022-10-13T14:50:02.625Z,2449.00
2022-10-13T14:51:02.839Z,2274.00
2022-10-13T14:52:02.992Z,2121.00
2022-10-13T14:53:03.203Z,2031.00
2022-10-13T14:54:03.369Z,1975.00
2022-10-13T14:55:03.558Z,1904.00
2022-10-13T14:56:03.754Z,1844.00
2022-10-13T14:57:03.946Z,1818.00
2022-10-13T14:58:04.151Z,1801.00
2022-10-13T14:59:04.346Z,1775.00
2022-10-13T15:00:04.567Z,1729.00
2022-10-13T15:01:04.734Z,1678.00
2022-10-13T15:02:04.927Z,1602.00
2022-10-13T15:03:05.178Z,1533.00
2022-10-13T15:04:05.348Z,1534.00
2022-10-13T15:05:05.529Z,1630.00
2022-10-13T15:06:05.725Z,1809.00
2022-10-13T15:07:05.925Z,2072.00
2022-10-13T15:08:06.203Z,2355.00
2022-10-13T15:09:06.328Z,2612.00
2022-10-13T15:10:06.792Z,2806.00
2022-10-13T15:11:06.677Z,2962.00
2022-10-13T15:12:06.870Z,3064.00
2022-10-13T15:13:07.079Z,3116.00
2022-10-13T15:14:07.223Z,3122.00
2022-10-13T15:15:07.411Z,3090.00
2022-10-13T15:16:07.600Z,3079.00
2022-10-13T15:17:07.813Z,3098.00
2022-10-13T15:18:08.042Z,3080.00
2022-10-13T15:19:08.208Z,3084.00
2022-10-13T15:20:08.416Z,3100.00
2022-10-13T15:21:08.593Z,3078.00
2022-10-13T15:22:08.786Z,3057.00
2022-10-13T15:23:08.976Z,3002.00
2022-10-13T15:24:09.151Z,2936.00
2022-10-13T15:25:09.351Z,2843.00
2022-10-13T15:26:09.520Z,2694.00
2022-10-13T15:27:09.708Z,2497.00
2022-10-13T15:28:09.934Z,2303.00
2022-10-13T15:29:10.086Z,2131.00
2022-10-13T15:30:10.272Z,1955.00
2022-10-13T15:31:10.463Z,1833.00
2022-10-13T15:32:10.671Z,1744.00
2022-10-13T15:33:10.910Z,1617.00
2022-10-13T15:34:11.033Z,1420.00
2022-10-13T15:35:11.220Z,1254.00
2022-10-13T15:36:11.402Z,1138.00
2022-10-13T15:37:11.577Z,1062.00
2022-10-13T15:38:11.775Z,1047.00
2022-10-13T15:39:11.958Z,1097.00
2022-10-13T15:40:12.138Z,1151.00
2022-10-13T15:41:12.321Z,1172.00
2022-10-13T15:42:12.615Z,1211.00
2022-10-13T15:43:12.840Z,1222.00
2022-10-13T15:44:13.018Z,1196.00
2022-10-13T15:45:13.206Z,1186.00
2022-10-13T15:46:13.405Z,1169.00
2022-10-13T15:47:17.078Z,1084.00
2022-10-13T15:48:13.795Z,1014.00
2022-10-13T15:49:13.957Z,994.00
2022-10-13T15:50:14.139Z,976.00
2022-10-13T15:51:14.323Z,925.00
2022-10-13T15:52:14.575Z,873.00
2022-10-13T15:53:14.684Z,870.00
2022-10-13T15:54:14.864Z,887.00
2022-10-13T15:55:15.066Z,875.00
2022-10-13T15:56:15.224Z,838.00
2022-10-13T15:57:15.422Z,770.00
2022-10-13T15:58:15.611Z,680.00
2022-10-13T15:59:15.761Z,593.00
2022-10-13T16:00:16.006Z,616.00
2022-10-13T16:01:16.176Z,653.00
2022-10-13T16:02:16.318Z,659.00
2022-10-13T16:03:16.557Z,632.00
2022-10-13T16:04:16.662Z,603.00
2022-10-13T16:05:16.823Z,583.00
2022-10-13T16:06:17.022Z,562.00
2022-10-13T16:07:17.209Z,543.00
2022-10-13T16:08:17.387Z,526.00
2022-10-13T16:09:17.531Z,506.00
2022-10-13T16:10:17.715Z,487.00
2022-10-13T16:11:17.899Z,454.00
2022-10-13T16:12:18.453Z,429.00
2022-10-13T16:13:18.300Z,412.00
2022-10-13T16:14:18.487Z,392.00
2022-10-13T16:15:18.626Z,359.00
2022-10-13T16:16:18.811Z,334.00
2022-10-13T16:17:19.052Z,304.00
2022-10-13T16:18:19.192Z,264.00
2022-10-13T16:19:19.345Z,236.00
2022-10-13T16:20:19.528Z,210.00